sensor_id;sensor_type;location;lat;lon;timestamp;P1;durP1;ratioP1;P2;durP2;ratioP2
57323;SDS011;43160;51.008;18.248;2023-05-24T00:04:39;18.30;;;8.50;;
57323;SDS011;43160;51.008;18.248;2023-05-24T00:14:23;19.10;;;9.90;;
57323;SDS011;43160;51.008;18.248;2023-05-24T00:24:12;18.10;;;9.70;;
57323;SDS011;43160;51.008;18.248;2023-05-24T00:33:56;20.10;;;9.10;;
57323;SDS011;43160;51.008;18.248;2023-05-24T00:43:39;24.30;;;13.10;;
57323;SDS011;43160;51.008;18.248;2023-05-24T00:53:30;20.20;;;11.60;;
57323;SDS011;43160;51.008;18.248;2023-05-24T01:03:24;20.60;;;10.40;;
57323;SDS011;43160;51.008;18.248;2023-05-24T01:13:26;23.90;;;12.20;;
57323;SDS011;43160;51.008;18.248;2023-05-24T01:24:07;30.50;;;14.30;;
57323;SDS011;43160;51.008;18.248;2023-05-24T01:34:29;25.50;;;14.10;;
57323;SDS011;43160;51.008;18.248;2023-05-24T01:54:25;37.90;;;21.90;;
57323;SDS011;43160;51.008;18.248;2023-05-24T02:04:11;37.60;;;22.10;;
57323;SDS011;43160;51.008;18.248;2023-05-24T02:13:55;39.40;;;21.60;;
57323;SDS011;43160;51.008;18.248;2023-05-24T02:23:40;36.60;;;18.50;;
57323;SDS011;43160;51.008;18.248;2023-05-24T02:33:27;37.10;;;21.60;;
57323;SDS011;43160;51.008;18.248;2023-05-24T02:43:15;34.30;;;18.00;;
57323;SDS011;43160;51.008;18.248;2023-05-24T02:52:58;38.00;;;20.40;;
57323;SDS011;43160;51.008;18.248;2023-05-24T03:02:43;32.70;;;14.70;;
57323;SDS011;43160;51.008;18.248;2023-05-24T03:12:29;34.60;;;13.80;;
57323;SDS011;43160;51.008;18.248;2023-05-24T03:22:12;30.50;;;14.50;;
57323;SDS011;43160;51.008;18.248;2023-05-24T03:31:57;31.70;;;12.10;;
57323;SDS011;43160;51.008;18.248;2023-05-24T03:41:40;23.00;;;11.00;;
57323;SDS011;43160;51.008;18.248;2023-05-24T03:51:23;21.50;;;11.30;;
57323;SDS011;43160;51.008;18.248;2023-05-24T04:01:16;22.50;;;9.90;;
57323;SDS011;43160;51.008;18.248;2023-05-24T04:11:04;13.90;;;7.00;;
57323;SDS011;43160;51.008;18.248;2023-05-24T04:20:47;12.80;;;4.50;;
57323;SDS011;43160;51.008;18.248;2023-05-24T04:30:32;9.40;;;3.60;;
57323;SDS011;43160;51.008;18.248;2023-05-24T04:40:20;13.60;;;2.80;;
57323;SDS011;43160;51.008;18.248;2023-05-24T04:50:05;10.90;;;3.80;;
57323;SDS011;43160;51.008;18.248;2023-05-24T04:59:53;9.50;;;3.80;;
57323;SDS011;43160;51.008;18.248;2023-05-24T05:09:36;10.90;;;3.50;;
57323;SDS011;43160;51.008;18.248;2023-05-24T05:19:19;12.90;;;3.50;;
57323;SDS011;43160;51.008;18.248;2023-05-24T05:29:02;9.60;;;2.30;;
57323;SDS011;43160;51.008;18.248;2023-05-24T05:38:45;9.90;;;3.40;;
57323;SDS011;43160;51.008;18.248;2023-05-24T05:48:29;12.30;;;2.70;;
57323;SDS011;43160;51.008;18.248;2023-05-24T05:58:12;13.50;;;3.90;;
57323;SDS011;43160;51.008;18.248;2023-05-24T06:07:56;12.20;;;3.30;;
57323;SDS011;43160;51.008;18.248;2023-05-24T06:17:39;10.10;;;3.30;;
57323;SDS011;43160;51.008;18.248;2023-05-24T06:27:30;9.90;;;3.30;;
57323;SDS011;43160;51.008;18.248;2023-05-24T06:37:13;8.90;;;2.60;;
57323;SDS011;43160;51.008;18.248;2023-05-24T06:46:59;8.90;;;2.70;;
57323;SDS011;43160;51.008;18.248;2023-05-24T06:56:44;9.10;;;2.40;;
57323;SDS011;43160;51.008;18.248;2023-05-24T07:06:36;8.30;;;2.60;;
57323;SDS011;43160;51.008;18.248;2023-05-24T07:16:21;10.10;;;2.50;;
57323;SDS011;43160;51.008;18.248;2023-05-24T07:26:03;8.00;;;2.40;;
57323;SDS011;43160;51.008;18.248;2023-05-24T07:35:48;10.00;;;3.20;;
57323;SDS011;43160;51.008;18.248;2023-05-24T07:45:33;6.90;;;2.50;;
57323;SDS011;43160;51.008;18.248;2023-05-24T07:55:18;15.30;;;3.20;;
57323;SDS011;43160;51.008;18.248;2023-05-24T07:57:45;10.60;;;3.80;;
57323;SDS011;43160;51.008;18.248;2023-05-24T08:07:36;9.80;;;3.20;;
57323;SDS011;43160;51.008;18.248;2023-05-24T08:17:21;11.60;;;4.30;;
57323;SDS011;43160;51.008;18.248;2023-05-24T08:27:06;10.30;;;3.40;;
57323;SDS011;43160;51.008;18.248;2023-05-24T08:36:52;12.90;;;4.60;;
57323;SDS011;43160;51.008;18.248;2023-05-24T08:46:38;13.80;;;5.30;;
57323;SDS011;43160;51.008;18.248;2023-05-24T08:56:24;3.00;;;1.50;;
57323;SDS011;43160;51.008;18.248;2023-05-24T09:06:12;12.80;;;4.80;;
57323;SDS011;43160;51.008;18.248;2023-05-24T09:15:59;10.80;;;5.80;;
57323;SDS011;43160;51.008;18.248;2023-05-24T09:25:44;12.20;;;5.20;;
57323;SDS011;43160;51.008;18.248;2023-05-24T09:35:38;11.60;;;4.30;;
57323;SDS011;43160;51.008;18.248;2023-05-24T09:45:37;13.90;;;5.60;;
57323;SDS011;43160;51.008;18.248;2023-05-24T09:55:28;15.40;;;5.40;;
57323;SDS011;43160;51.008;18.248;2023-05-24T10:05:27;12.60;;;4.40;;
57323;SDS011;43160;51.008;18.248;2023-05-24T10:15:11;17.30;;;5.90;;
57323;SDS011;43160;51.008;18.248;2023-05-24T10:25:00;14.10;;;4.60;;
57323;SDS011;43160;51.008;18.248;2023-05-24T10:35:01;11.00;;;4.80;;
57323;SDS011;43160;51.008;18.248;2023-05-24T10:44:48;12.90;;;5.00;;
57323;SDS011;43160;51.008;18.248;2023-05-24T11:05:09;11.80;;;5.60;;
57323;SDS011;43160;51.008;18.248;2023-05-24T11:15:03;21.70;;;6.70;;
57323;SDS011;43160;51.008;18.248;2023-05-24T11:25:10;16.70;;;6.10;;
57323;SDS011;43160;51.008;18.248;2023-05-24T11:32:39;17.80;;;7.80;;
57323;SDS011;43160;51.008;18.248;2023-05-24T11:42:27;16.90;;;5.50;;
57323;SDS011;43160;51.008;18.248;2023-05-24T11:52:14;14.10;;;5.60;;
57323;SDS011;43160;51.008;18.248;2023-05-24T12:02:03;14.30;;;6.30;;
57323;SDS011;43160;51.008;18.248;2023-05-24T12:11:54;17.10;;;5.80;;
57323;SDS011;43160;51.008;18.248;2023-05-24T12:21:41;15.00;;;5.80;;
57323;SDS011;43160;51.008;18.248;2023-05-24T12:31:34;11.80;;;4.90;;
57323;SDS011;43160;51.008;18.248;2023-05-24T12:41:21;16.90;;;5.30;;
57323;SDS011;43160;51.008;18.248;2023-05-24T12:51:07;13.30;;;6.00;;
57323;SDS011;43160;51.008;18.248;2023-05-24T13:00:51;11.90;;;5.40;;
57323;SDS011;43160;51.008;18.248;2023-05-24T13:10:36;10.40;;;4.60;;
57323;SDS011;43160;51.008;18.248;2023-05-24T13:20:19;14.40;;;4.70;;
57323;SDS011;43160;51.008;18.248;2023-05-24T13:30:06;10.60;;;4.40;;
57323;SDS011;43160;51.008;18.248;2023-05-24T13:39:50;10.70;;;3.60;;
57323;SDS011;43160;51.008;18.248;2023-05-24T13:49:33;14.20;;;5.30;;
57323;SDS011;43160;51.008;18.248;2023-05-24T13:59:21;13.60;;;6.10;;
57323;SDS011;43160;51.008;18.248;2023-05-24T14:09:07;11.20;;;5.40;;
57323;SDS011;43160;51.008;18.248;2023-05-24T14:18:52;11.00;;;4.50;;
57323;SDS011;43160;51.008;18.248;2023-05-24T14:28:35;13.40;;;5.40;;
57323;SDS011;43160;51.008;18.248;2023-05-24T14:38:19;17.30;;;5.00;;
57323;SDS011;43160;51.008;18.248;2023-05-24T14:48:06;13.20;;;5.30;;
57323;SDS011;43160;51.008;18.248;2023-05-24T14:58:02;11.70;;;5.20;;
57323;SDS011;43160;51.008;18.248;2023-05-24T15:07:46;12.10;;;4.90;;
57323;SDS011;43160;51.008;18.248;2023-05-24T15:17:31;21.90;;;8.10;;
57323;SDS011;43160;51.008;18.248;2023-05-24T15:27:17;11.20;;;4.80;;
57323;SDS011;43160;51.008;18.248;2023-05-24T15:37:00;12.70;;;5.20;;
57323;SDS011;43160;51.008;18.248;2023-05-24T15:46:44;11.10;;;4.80;;
57323;SDS011;43160;51.008;18.248;2023-05-24T15:56:29;18.30;;;5.50;;
57323;SDS011;43160;51.008;18.248;2023-05-24T16:06:12;14.30;;;7.20;;
57323;SDS011;43160;51.008;18.248;2023-05-24T16:15:58;15.00;;;5.90;;
57323;SDS011;43160;51.008;18.248;2023-05-24T16:25:47;14.70;;;6.00;;
57323;SDS011;43160;51.008;18.248;2023-05-24T16:35:33;13.00;;;5.30;;
57323;SDS011;43160;51.008;18.248;2023-05-24T16:45:18;17.90;;;6.00;;
57323;SDS011;43160;51.008;18.248;2023-05-24T16:55:12;13.10;;;6.30;;
57323;SDS011;43160;51.008;18.248;2023-05-24T17:04:59;12.40;;;5.30;;
57323;SDS011;43160;51.008;18.248;2023-05-24T17:14:45;14.50;;;6.10;;
57323;SDS011;43160;51.008;18.248;2023-05-24T17:24:30;16.10;;;6.20;;
57323;SDS011;43160;51.008;18.248;2023-05-24T17:34:14;24.70;;;7.50;;
57323;SDS011;43160;51.008;18.248;2023-05-24T17:43:58;17.40;;;5.70;;
57323;SDS011;43160;51.008;18.248;2023-05-24T17:53:45;13.70;;;6.30;;
57323;SDS011;43160;51.008;18.248;2023-05-24T18:03:30;13.00;;;5.70;;
57323;SDS011;43160;51.008;18.248;2023-05-24T18:13:15;15.40;;;7.00;;
57323;SDS011;43160;51.008;18.248;2023-05-24T18:23:00;14.20;;;6.20;;
57323;SDS011;43160;51.008;18.248;2023-05-24T18:32:43;16.50;;;7.20;;
57323;SDS011;43160;51.008;18.248;2023-05-24T18:42:28;16.40;;;6.80;;
57323;SDS011;43160;51.008;18.248;2023-05-24T18:52:12;19.60;;;8.90;;
57323;SDS011;43160;51.008;18.248;2023-05-24T19:01:59;17.40;;;7.60;;
57323;SDS011;43160;51.008;18.248;2023-05-24T19:11:44;24.80;;;6.90;;
57323;SDS011;43160;51.008;18.248;2023-05-24T19:21:32;16.60;;;7.80;;
57323;SDS011;43160;51.008;18.248;2023-05-24T19:31:17;18.30;;;8.30;;
57323;SDS011;43160;51.008;18.248;2023-05-24T19:41:07;15.40;;;6.40;;
57323;SDS011;43160;51.008;18.248;2023-05-24T19:50:51;23.50;;;8.80;;
57323;SDS011;43160;51.008;18.248;2023-05-24T20:00:34;16.30;;;5.70;;
57323;SDS011;43160;51.008;18.248;2023-05-24T20:10:17;21.20;;;9.20;;
57323;SDS011;43160;51.008;18.248;2023-05-24T20:20:02;20.30;;;8.20;;
57323;SDS011;43160;51.008;18.248;2023-05-24T20:29:46;18.60;;;9.10;;
57323;SDS011;43160;51.008;18.248;2023-05-24T20:39:30;15.60;;;7.50;;
57323;SDS011;43160;51.008;18.248;2023-05-24T20:49:14;18.50;;;8.20;;
57323;SDS011;43160;51.008;18.248;2023-05-24T20:58:58;14.20;;;6.20;;
57323;SDS011;43160;51.008;18.248;2023-05-24T21:08:45;14.90;;;6.50;;
57323;SDS011;43160;51.008;18.248;2023-05-24T21:18:28;16.40;;;7.70;;
57323;SDS011;43160;51.008;18.248;2023-05-24T21:28:12;16.30;;;6.30;;
57323;SDS011;43160;51.008;18.248;2023-05-24T21:37:57;23.70;;;10.10;;
57323;SDS011;43160;51.008;18.248;2023-05-24T21:47:41;15.60;;;6.60;;
57323;SDS011;43160;51.008;18.248;2023-05-24T21:57:24;17.30;;;8.60;;
57323;SDS011;43160;51.008;18.248;2023-05-24T22:07:07;16.40;;;7.30;;
57323;SDS011;43160;51.008;18.248;2023-05-24T22:16:52;20.10;;;9.00;;
57323;SDS011;43160;51.008;18.248;2023-05-24T22:26:40;16.70;;;6.60;;
57323;SDS011;43160;51.008;18.248;2023-05-24T22:36:29;27.70;;;13.90;;
57323;SDS011;43160;51.008;18.248;2023-05-24T22:46:18;20.90;;;8.50;;
57323;SDS011;43160;51.008;18.248;2023-05-24T22:56:10;19.40;;;8.70;;
57323;SDS011;43160;51.008;18.248;2023-05-24T23:05:53;21.20;;;8.50;;
57323;SDS011;43160;51.008;18.248;2023-05-24T23:13:13;29.80;;;15.60;;
57323;SDS011;43160;51.008;18.248;2023-05-24T23:23:04;20.00;;;8.10;;
57323;SDS011;43160;51.008;18.248;2023-05-24T23:32:49;17.60;;;7.80;;
57323;SDS011;43160;51.008;18.248;2023-05-24T23:42:33;19.80;;;8.90;;
57323;SDS011;43160;51.008;18.248;2023-05-24T23:52:18;25.80;;;10.30;;
